createdAt,value
2022-12-24T00:01:36.889Z,32.67
2022-12-24T00:04:03.723Z,42.23
2022-12-24T00:06:30.391Z,42.17
2022-12-24T00:08:56.971Z,40.43
2022-12-24T00:11:23.635Z,43.27
2022-12-24T00:13:50.227Z,47.20
2022-12-24T00:16:16.954Z,47.67
2022-12-24T00:18:46.195Z,44.53
2022-12-24T00:21:14.516Z,40.80
2022-12-24T00:23:41.141Z,40.63
2022-12-24T00:26:08.071Z,49.40
2022-12-24T00:28:34.755Z,41.53
2022-12-24T00:31:09.294Z,37.03
2022-12-24T00:33:35.941Z,35.10
2022-12-24T00:36:02.567Z,29.40
2022-12-24T00:38:29.184Z,63.93
2022-12-24T00:41:00.928Z,36.40
2022-12-24T00:43:28.677Z,33.53
2022-12-24T00:45:55.340Z,33.07
2022-12-24T00:48:23.004Z,31.70
2022-12-24T00:50:50.695Z,30.97
2022-12-24T00:53:18.038Z,30.73
2022-12-24T00:55:44.710Z,32.70
2022-12-24T00:58:11.331Z,29.50
2022-12-24T01:00:37.952Z,27.90
2022-12-24T01:03:04.579Z,27.83
2022-12-24T01:05:31.316Z,34.80
2022-12-24T01:07:57.936Z,37.77
2022-12-24T01:10:24.529Z,27.23
2022-12-24T01:12:51.055Z,27.90
2022-12-24T01:15:17.969Z,27.43
2022-12-24T01:17:44.648Z,25.83
2022-12-24T01:20:14.978Z,24.93
2022-12-24T01:22:41.587Z,21.70
2022-12-24T01:25:08.651Z,17.63
2022-12-24T01:27:35.312Z,21.20
2022-12-24T01:30:01.891Z,23.67
2022-12-24T01:32:28.516Z,25.17
2022-12-24T01:34:55.102Z,20.60
2022-12-24T01:37:21.748Z,21.87
2022-12-24T01:39:48.325Z,21.60
2022-12-24T01:42:41.281Z,20.10
2022-12-24T01:45:32.703Z,22.27
2022-12-24T01:47:59.312Z,23.33
2022-12-24T01:50:26.037Z,24.50
2022-12-24T01:52:52.742Z,33.50
2022-12-24T01:55:19.479Z,29.13
2022-12-24T01:57:55.511Z,28.57
2022-12-24T02:00:22.439Z,28.37
2022-12-24T02:02:51.019Z,29.17
2022-12-24T02:05:31.622Z,30.43
2022-12-24T02:08:00.115Z,30.03
2022-12-24T02:10:26.713Z,31.97
2022-12-24T02:12:53.642Z,30.60
2022-12-24T02:15:20.731Z,33.07
2022-12-24T02:18:06.315Z,32.27
2022-12-24T02:20:58.665Z,33.87
2022-12-24T02:23:55.036Z,30.83
2022-12-24T02:26:47.918Z,30.23
2022-12-24T02:29:50.007Z,26.43
2022-12-24T02:32:25.005Z,26.87
2022-12-24T02:35:01.343Z,29.23
2022-12-24T02:37:40.702Z,29.10
2022-12-24T02:40:28.784Z,28.13
2022-12-24T02:43:02.148Z,23.23
2022-12-24T02:45:31.764Z,21.53
2022-12-24T02:47:59.069Z,26.17
2022-12-24T02:50:26.296Z,25.57
2022-12-24T02:52:53.268Z,23.40
2022-12-24T02:55:24.743Z,21.70
2022-12-24T02:58:00.692Z,18.87
2022-12-24T03:00:31.824Z,21.67
2022-12-24T03:03:12.319Z,20.20
2022-12-24T03:05:44.279Z,22.80
2022-12-24T03:08:18.198Z,22.20
2022-12-24T03:11:01.201Z,19.03
2022-12-24T03:13:28.493Z,25.43
2022-12-24T03:15:55.383Z,20.67
2022-12-24T03:18:24.825Z,20.43
2022-12-24T03:21:06.904Z,21.17
2022-12-24T03:23:34.365Z,20.77
2022-12-24T03:26:05.334Z,25.47
2022-12-24T03:28:32.602Z,24.37
2022-12-24T03:31:02.296Z,23.00
2022-12-24T03:33:29.513Z,24.37
2022-12-24T03:35:56.191Z,21.83
2022-12-24T03:38:23.124Z,22.23
2022-12-24T03:40:49.733Z,24.97
2022-12-24T03:43:16.296Z,24.37
2022-12-24T03:45:42.913Z,23.57
2022-12-24T03:48:09.578Z,23.40
2022-12-24T03:50:36.218Z,23.53
2022-12-24T03:53:02.831Z,22.30
2022-12-24T03:55:29.527Z,21.23
2022-12-24T03:57:56.126Z,19.93
2022-12-24T04:00:22.756Z,19.37
2022-12-24T04:02:49.523Z,18.50
2022-12-24T04:05:19.189Z,18.33
2022-12-24T04:07:46.702Z,19.97
2022-12-24T04:10:14.711Z,22.30
2022-12-24T04:12:41.421Z,21.10
2022-12-24T04:15:09.199Z,21.47
2022-12-24T04:17:35.980Z,24.43
2022-12-24T04:20:02.658Z,25.73
2022-12-24T04:22:29.241Z,19.57
2022-12-24T04:24:55.850Z,44.00
2022-12-24T04:27:28.268Z,33.80
2022-12-24T04:29:56.828Z,27.20
2022-12-24T04:32:23.434Z,26.07
2022-12-24T04:34:50.028Z,24.87
2022-12-24T04:37:16.615Z,27.63
2022-12-24T04:39:43.187Z,36.40
2022-12-24T04:42:09.784Z,37.73
2022-12-24T04:44:36.363Z,30.23
2022-12-24T04:47:03.034Z,32.60
2022-12-24T04:49:29.608Z,31.87
2022-12-24T04:51:56.160Z,45.13
2022-12-24T04:54:22.754Z,36.73
2022-12-24T04:56:49.375Z,36.87
2022-12-24T04:59:15.980Z,37.27
2022-12-24T05:01:42.723Z,27.03
2022-12-24T05:04:11.404Z,28.27
2022-12-24T05:06:38.094Z,26.97
2022-12-24T05:09:04.864Z,23.27
2022-12-24T05:11:31.712Z,27.10
2022-12-24T05:13:58.304Z,30.00
2022-12-24T05:16:25.293Z,24.17
2022-12-24T05:18:52.719Z,21.97
2022-12-24T05:21:21.901Z,26.17
2022-12-24T05:24:06.988Z,24.73
2022-12-24T05:26:38.180Z,25.47
2022-12-24T05:29:06.077Z,22.77
2022-12-24T05:31:34.164Z,25.60
2022-12-24T05:34:01.441Z,25.03
2022-12-24T05:36:28.107Z,22.02
2022-12-24T05:38:54.892Z,21.90
2022-12-24T05:41:21.898Z,22.60
2022-12-24T05:43:48.584Z,24.93
2022-12-24T05:46:19.158Z,25.70
2022-12-24T05:48:46.512Z,28.67
2022-12-24T05:51:14.179Z,34.43
2022-12-24T05:53:41.390Z,27.47
2022-12-24T05:56:11.451Z,27.20
2022-12-24T05:58:38.768Z,30.97
2022-12-24T06:01:05.868Z,34.67
2022-12-24T06:03:33.488Z,32.07
2022-12-24T06:06:06.456Z,42.00
2022-12-24T06:08:34.648Z,37.10
2022-12-24T06:11:03.634Z,40.53
2022-12-24T06:13:30.444Z,59.07
2022-12-24T06:16:01.916Z,55.97
2022-12-24T06:18:33.072Z,49.33
2022-12-24T06:20:59.882Z,51.87
2022-12-24T06:23:30.703Z,70.00
2022-12-24T06:25:58.349Z,68.83
2022-12-24T06:28:25.300Z,58.60
2022-12-24T06:30:54.676Z,79.07
2022-12-24T06:33:25.393Z,71.00
2022-12-24T06:35:51.993Z,59.63
2022-12-24T06:38:18.629Z,55.53
2022-12-24T06:40:46.373Z,52.90
2022-12-24T06:43:13.853Z,52.03
2022-12-24T06:45:40.708Z,52.23
2022-12-24T06:48:07.317Z,50.90
2022-12-24T06:50:34.446Z,54.10
2022-12-24T06:53:01.004Z,45.13
2022-12-24T06:55:27.949Z,52.03
2022-12-24T06:57:54.522Z,43.73
2022-12-24T07:00:21.970Z,27.93
2022-12-24T07:02:48.644Z,31.73
2022-12-24T07:05:15.726Z,31.60
2022-12-24T07:07:43.926Z,29.30
2022-12-24T07:10:16.035Z,36.63
2022-12-24T07:12:43.254Z,30.90
2022-12-24T07:15:10.757Z,36.67
2022-12-24T07:17:37.627Z,34.77
2022-12-24T07:20:05.767Z,39.67
2022-12-24T07:22:32.491Z,37.70
2022-12-24T07:24:59.085Z,29.90
2022-12-24T07:27:25.624Z,32.17
2022-12-24T07:29:52.230Z,26.83
2022-12-24T07:32:20.490Z,35.17
2022-12-24T07:34:47.116Z,22.67
2022-12-24T07:37:13.727Z,27.50
2022-12-24T07:39:40.314Z,30.50
2022-12-24T07:42:08.207Z,37.17
2022-12-24T07:44:35.308Z,45.00
2022-12-24T07:47:02.652Z,45.60
2022-12-24T07:49:29.525Z,44.53
2022-12-24T07:51:56.140Z,34.20
2022-12-24T07:54:22.872Z,55.83
2022-12-24T07:56:49.521Z,45.43
2022-12-24T07:59:16.079Z,37.93
2022-12-24T08:01:43.274Z,38.10
2022-12-24T08:04:10.089Z,40.40
2022-12-24T08:06:36.782Z,37.47
2022-12-24T08:09:03.849Z,30.63
2022-12-24T08:11:30.450Z,29.07
2022-12-24T08:13:57.112Z,28.93
2022-12-24T08:16:24.031Z,28.90
2022-12-24T08:18:50.695Z,27.53
2022-12-24T08:21:17.361Z,27.33
2022-12-24T08:23:43.934Z,18.00
2022-12-24T08:26:11.067Z,9.37
2022-12-24T08:28:37.825Z,8.30
2022-12-24T08:31:05.239Z,10.20
2022-12-24T08:33:32.318Z,11.33
2022-12-24T08:36:01.455Z,8.83
2022-12-24T08:38:28.196Z,10.73
2022-12-24T08:40:55.730Z,35.08
2022-12-24T08:43:22.754Z,31.43
2022-12-24T08:45:50.208Z,34.73
2022-12-24T08:48:17.214Z,28.03
2022-12-24T08:50:44.058Z,27.93
2022-12-24T08:53:10.938Z,31.13
2022-12-24T08:55:37.839Z,27.83
2022-12-24T08:58:04.624Z,25.63
2022-12-24T09:00:31.438Z,29.00
2022-12-24T09:02:58.336Z,30.67
2022-12-24T09:05:26.174Z,29.77
2022-12-24T09:07:53.040Z,29.00
2022-12-24T09:10:20.184Z,28.37
2022-12-24T09:12:46.922Z,31.33
2022-12-24T09:15:14.393Z,34.77
2022-12-24T09:17:41.195Z,37.90
2022-12-24T09:20:08.679Z,44.27
2022-12-24T09:22:37.694Z,37.03
2022-12-24T09:25:06.321Z,35.83
2022-12-24T09:27:32.951Z,39.63
2022-12-24T09:29:59.539Z,39.13
2022-12-24T09:32:26.122Z,38.10
2022-12-24T09:34:52.834Z,35.97
2022-12-24T09:37:19.768Z,33.93
2022-12-24T09:39:46.396Z,31.83
2022-12-24T09:42:19.100Z,30.73
2022-12-24T09:44:54.488Z,33.60
2022-12-24T09:47:38.485Z,36.63
2022-12-24T09:50:28.369Z,36.03
2022-12-24T09:52:55.693Z,32.27
2022-12-24T09:55:39.601Z,25.27
2022-12-24T09:58:07.662Z,28.23
2022-12-24T10:00:37.353Z,24.83
2022-12-24T10:03:15.106Z,26.00
2022-12-24T10:06:09.810Z,25.20
2022-12-24T10:08:46.296Z,22.03
2022-12-24T10:11:31.607Z,27.70
2022-12-24T10:14:15.935Z,30.23
2022-12-24T10:16:58.705Z,27.10
2022-12-24T10:19:40.505Z,29.60
2022-12-24T10:22:39.400Z,31.70
2022-12-24T10:25:18.068Z,27.10
2022-12-24T10:27:45.474Z,24.40
2022-12-24T10:30:20.914Z,23.63
2022-12-24T10:32:50.172Z,24.40
2022-12-24T10:35:16.719Z,24.77
2022-12-24T10:37:48.304Z,33.83
2022-12-24T10:40:35.622Z,44.10
2022-12-24T10:43:02.317Z,38.47
2022-12-24T10:45:37.817Z,37.90
2022-12-24T10:48:09.359Z,30.40
2022-12-24T10:50:40.295Z,23.10
2022-12-24T10:53:19.311Z,21.53
2022-12-24T10:55:48.150Z,20.90
2022-12-24T10:58:19.808Z,32.43
2022-12-24T11:00:51.352Z,29.77
2022-12-24T11:03:17.941Z,40.70
2022-12-24T11:05:44.566Z,36.03
2022-12-24T11:08:14.247Z,32.10
2022-12-24T11:10:43.285Z,31.70
2022-12-24T11:13:37.430Z,32.57
2022-12-24T11:16:05.608Z,29.73
2022-12-24T11:18:34.944Z,26.93
2022-12-24T11:21:01.776Z,28.43
2022-12-24T11:23:29.348Z,19.53
2022-12-24T11:25:57.155Z,22.53
2022-12-24T11:28:33.510Z,22.20
2022-12-24T11:31:04.637Z,23.50
2022-12-24T11:33:32.671Z,24.70
2022-12-24T11:36:05.231Z,25.80
2022-12-24T11:38:33.258Z,23.33
2022-12-24T11:41:08.079Z,24.70
2022-12-24T11:43:47.217Z,26.07
2022-12-24T11:46:19.580Z,28.93
2022-12-24T11:48:47.202Z,27.03
2022-12-24T11:51:23.206Z,33.37
2022-12-24T11:54:14.538Z,20.00
2022-12-24T11:56:44.954Z,21.53
2022-12-24T11:59:18.405Z,19.67
2022-12-24T12:01:51.065Z,26.63
2022-12-24T12:04:37.977Z,35.03
2022-12-24T12:07:14.841Z,36.73
2022-12-24T12:09:45.919Z,45.60
2022-12-24T12:12:16.602Z,40.90
2022-12-24T12:14:49.726Z,39.90
2022-12-24T12:17:56.594Z,40.20
2022-12-24T12:20:46.910Z,38.57
2022-12-24T12:23:16.075Z,27.63
2022-12-24T12:26:00.846Z,29.47
2022-12-24T12:28:37.528Z,26.43
2022-12-24T12:31:27.380Z,23.67
2022-12-24T12:34:00.988Z,23.80
2022-12-24T12:36:33.057Z,23.97
2022-12-24T12:38:59.771Z,23.57
2022-12-24T12:41:29.249Z,20.23
2022-12-24T12:44:10.795Z,21.00
2022-12-24T12:47:03.801Z,29.70
2022-12-24T12:50:01.279Z,30.33
2022-12-24T12:52:49.599Z,22.30
2022-12-24T12:55:32.743Z,43.60
2022-12-24T12:58:01.744Z,47.07
2022-12-24T13:00:30.316Z,45.73
2022-12-24T13:03:04.123Z,47.73
2022-12-24T13:05:51.328Z,43.70
2022-12-24T13:08:36.173Z,44.00
2022-12-24T13:11:50.580Z,39.00
2022-12-24T13:14:17.107Z,44.13
2022-12-24T13:17:07.918Z,53.23
2022-12-24T13:20:09.840Z,46.03
2022-12-24T13:22:36.556Z,48.47
2022-12-24T13:25:03.381Z,49.60
2022-12-24T13:27:32.273Z,42.03
2022-12-24T13:30:10.222Z,43.03
2022-12-24T13:32:39.823Z,88.20
2022-12-24T13:35:18.575Z,102.47
2022-12-24T13:37:45.743Z,151.87
2022-12-24T13:40:12.699Z,146.33
2022-12-24T13:43:06.617Z,86.37
2022-12-24T13:45:39.590Z,49.43
2022-12-24T13:48:06.215Z,49.33
2022-12-24T13:50:50.629Z,50.73
2022-12-24T13:53:44.077Z,66.10
2022-12-24T13:56:13.731Z,76.73
2022-12-24T13:58:43.144Z,68.73
2022-12-24T14:01:12.139Z,73.63
2022-12-24T14:03:47.530Z,104.83
2022-12-24T14:06:23.258Z,113.83
2022-12-24T14:08:53.124Z,120.67
2022-12-24T14:11:22.308Z,91.03
2022-12-24T14:13:52.355Z,79.47
2022-12-24T14:16:22.041Z,50.07
2022-12-24T14:18:58.125Z,65.13
2022-12-24T14:21:38.739Z,85.67
2022-12-24T14:24:07.370Z,100.77
2022-12-24T14:26:38.328Z,84.80
2022-12-24T14:29:13.664Z,98.37
2022-12-24T14:31:50.591Z,91.93
2022-12-24T14:34:17.221Z,112.30
2022-12-24T14:36:45.250Z,118.30
2022-12-24T14:39:21.641Z,129.17
2022-12-24T14:42:04.964Z,118.90
2022-12-24T14:44:55.839Z,94.87
2022-12-24T14:47:47.953Z,117.07
2022-12-24T14:50:23.627Z,108.47
2022-12-24T14:53:11.956Z,116.30
2022-12-24T14:55:45.271Z,122.37
2022-12-24T14:58:33.939Z,193.17
2022-12-24T15:01:03.341Z,165.03
2022-12-24T15:03:32.453Z,144.83
2022-12-24T15:06:02.475Z,133.37
2022-12-24T15:08:37.202Z,156.97
2022-12-24T15:11:06.454Z,156.40
2022-12-24T15:13:38.477Z,187.37
2022-12-24T15:16:14.402Z,180.37
2022-12-24T15:18:54.036Z,95.07
2022-12-24T15:21:32.111Z,97.40
2022-12-24T15:23:59.099Z,56.83
2022-12-24T15:26:37.315Z,38.10
2022-12-24T15:29:20.139Z,28.83
2022-12-24T15:31:52.891Z,21.50
2022-12-24T15:34:32.025Z,21.10
2022-12-24T15:37:06.118Z,14.07
2022-12-24T15:39:32.917Z,11.47
2022-12-24T15:42:14.656Z,20.87
2022-12-24T15:44:46.323Z,11.20
2022-12-24T15:47:19.652Z,17.10
2022-12-24T15:49:49.317Z,9.60
2022-12-24T15:52:17.609Z,11.53
2022-12-24T15:54:53.700Z,19.33
2022-12-24T15:57:26.975Z,23.47
2022-12-24T15:59:55.609Z,20.83
2022-12-24T16:02:25.481Z,16.07
2022-12-24T16:04:52.215Z,15.80
2022-12-24T16:07:26.409Z,69.87
2022-12-24T16:10:12.986Z,22.13
2022-12-24T16:12:39.741Z,15.47
2022-12-24T16:15:13.825Z,14.50
2022-12-24T16:17:40.419Z,15.70
2022-12-24T16:20:17.113Z,16.93
2022-12-24T16:22:46.782Z,21.67
2022-12-24T16:25:26.744Z,9.77
2022-12-24T16:27:54.374Z,26.23
2022-12-24T16:30:23.270Z,14.43
2022-12-24T16:32:51.027Z,8.20
2022-12-24T16:35:26.314Z,7.97
2022-12-24T16:37:53.771Z,11.97
2022-12-24T16:40:26.614Z,4.77
2022-12-24T16:43:12.618Z,6.60
2022-12-24T16:45:39.360Z,9.27
2022-12-24T16:48:07.414Z,9.43
2022-12-24T16:50:34.511Z,12.53
2022-12-24T16:53:01.183Z,9.67
2022-12-24T16:55:27.768Z,6.00
2022-12-24T16:57:54.325Z,7.50
2022-12-24T17:00:22.780Z,9.20
2022-12-24T17:02:50.122Z,7.00
2022-12-24T17:05:17.127Z,4.10
2022-12-24T17:07:44.429Z,15.13
2022-12-24T17:10:12.908Z,6.00
2022-12-24T17:12:39.630Z,3.97
2022-12-24T17:15:06.728Z,4.20
2022-12-24T17:17:33.438Z,5.10
2022-12-24T17:20:00.057Z,5.10
2022-12-24T17:22:29.599Z,8.83
2022-12-24T17:24:56.425Z,19.10
2022-12-24T17:27:23.311Z,19.97
2022-12-24T17:29:50.280Z,21.47
2022-12-24T17:32:16.966Z,19.17
2022-12-24T17:34:43.660Z,23.37
2022-12-24T17:37:10.319Z,33.57
2022-12-24T17:39:36.954Z,40.90
2022-12-24T17:42:03.659Z,21.47
2022-12-24T17:44:46.553Z,34.02
2022-12-24T17:47:13.136Z,31.43
2022-12-24T17:49:39.761Z,31.33
2022-12-24T17:52:06.309Z,28.53
2022-12-24T17:54:33.100Z,22.90
2022-12-24T17:56:59.755Z,16.50
2022-12-24T17:59:26.411Z,9.30
2022-12-24T18:01:53.090Z,6.20
2022-12-24T18:04:19.714Z,6.40
2022-12-24T18:06:49.590Z,4.90
2022-12-24T18:09:16.796Z,6.23
2022-12-24T18:11:43.495Z,5.57
2022-12-24T18:14:12.254Z,5.77
2022-12-24T18:16:39.782Z,3.60
2022-12-24T18:19:08.350Z,4.20
2022-12-24T18:21:35.048Z,5.90
2022-12-24T18:24:02.141Z,4.30
2022-12-24T18:26:29.977Z,4.17
2022-12-24T18:28:58.800Z,3.53
2022-12-24T18:31:26.923Z,5.57
2022-12-24T18:33:55.778Z,5.27
2022-12-24T18:36:23.033Z,4.77
2022-12-24T18:38:49.949Z,4.17
2022-12-24T18:41:22.300Z,4.77
2022-12-24T18:43:49.204Z,4.50
2022-12-24T18:46:21.298Z,4.47
2022-12-24T18:48:48.302Z,4.30
2022-12-24T18:51:16.266Z,6.00
2022-12-24T18:53:43.204Z,10.17
2022-12-24T18:56:15.843Z,60.87
2022-12-24T18:58:43.175Z,4.10
2022-12-24T19:01:11.363Z,5.90
2022-12-24T19:03:38.151Z,11.00
2022-12-24T19:06:05.120Z,5.07
2022-12-24T19:09:00.389Z,5.10
2022-12-24T19:11:18.619Z,5.53
2022-12-24T19:13:47.383Z,5.20
2022-12-24T19:16:14.775Z,5.87
2022-12-24T19:18:41.850Z,10.87
2022-12-24T19:21:10.807Z,8.40
2022-12-24T19:23:37.535Z,5.27
2022-12-24T19:26:04.838Z,7.10
2022-12-24T19:28:32.312Z,5.13
2022-12-24T19:31:11.841Z,5.07
2022-12-24T19:33:42.985Z,8.80
2022-12-24T19:36:12.331Z,7.53
2022-12-24T19:38:38.904Z,7.97
2022-12-24T19:41:10.659Z,9.67
2022-12-24T19:43:39.051Z,10.40
2022-12-24T19:46:05.832Z,9.93
2022-12-24T19:48:32.605Z,11.43
2022-12-24T19:51:11.738Z,9.17
2022-12-24T19:53:39.912Z,9.90
2022-12-24T19:56:08.745Z,5.00
2022-12-24T19:58:36.021Z,6.97
2022-12-24T20:01:15.964Z,3.83
2022-12-24T20:03:43.841Z,5.00
2022-12-24T20:06:12.565Z,8.60
2022-12-24T20:08:39.625Z,4.00
2022-12-24T20:11:11.312Z,4.93
2022-12-24T20:13:38.900Z,4.50
2022-12-24T20:16:09.386Z,4.70
2022-12-24T20:18:36.105Z,13.73
2022-12-24T20:21:05.304Z,6.73
2022-12-24T20:23:32.544Z,9.20
2022-12-24T20:26:00.946Z,6.30
2022-12-24T20:28:30.103Z,7.57
2022-12-24T20:30:56.864Z,4.07
2022-12-24T20:33:23.507Z,7.27
2022-12-24T20:35:50.268Z,5.30
2022-12-24T20:38:16.958Z,4.37
2022-12-24T20:40:44.942Z,3.33
2022-12-24T20:43:12.529Z,3.87
2022-12-24T20:45:39.392Z,3.93
2022-12-24T20:48:06.743Z,3.73
2022-12-24T20:50:33.724Z,4.27
2022-12-24T20:53:00.316Z,3.17
2022-12-24T20:55:27.037Z,4.63
2022-12-24T20:57:53.802Z,3.63
2022-12-24T21:00:21.081Z,3.37
2022-12-24T21:02:47.888Z,3.27
2022-12-24T21:05:15.336Z,3.40
2022-12-24T21:07:43.653Z,3.60
2022-12-24T21:10:14.530Z,3.70
2022-12-24T21:12:50.124Z,3.17
2022-12-24T21:15:20.667Z,3.73
2022-12-24T21:17:48.408Z,3.50
2022-12-24T21:20:16.051Z,3.07
2022-12-24T21:22:43.129Z,3.47
2022-12-24T21:25:11.526Z,3.23
2022-12-24T21:27:38.563Z,3.67
2022-12-24T21:30:07.189Z,3.50
2022-12-24T21:32:34.778Z,4.33
2022-12-24T21:35:01.602Z,3.90
2022-12-24T21:37:28.160Z,4.20
2022-12-24T21:39:54.744Z,3.47
2022-12-24T21:42:21.357Z,4.50
2022-12-24T21:44:48.032Z,3.67
2022-12-24T21:47:14.678Z,4.47
2022-12-24T21:50:00.246Z,4.10
2022-12-24T21:52:26.856Z,4.53
2022-12-24T21:54:53.428Z,7.57
2022-12-24T21:57:38.918Z,4.10
2022-12-24T22:00:26.838Z,6.03
2022-12-24T22:02:56.475Z,9.13
2022-12-24T22:05:26.060Z,6.23
2022-12-24T22:08:12.310Z,9.40
2022-12-24T22:10:57.952Z,4.57
2022-12-24T22:13:25.121Z,18.77
2022-12-24T22:15:54.109Z,5.33
2022-12-24T22:18:23.398Z,4.73
2022-12-24T22:20:50.730Z,4.87
2022-12-24T22:23:18.378Z,4.50
2022-12-24T22:25:45.271Z,5.10
2022-12-24T22:28:12.067Z,4.63
2022-12-24T22:30:42.572Z,3.87
2022-12-24T22:33:09.791Z,4.50
2022-12-24T22:35:40.484Z,4.10
2022-12-24T22:38:09.013Z,5.03
2022-12-24T22:40:35.736Z,4.70
2022-12-24T22:43:02.528Z,6.70
2022-12-24T22:45:29.213Z,6.23
2022-12-24T22:47:55.802Z,5.07
2022-12-24T22:50:23.649Z,8.97
2022-12-24T22:52:50.196Z,5.60
2022-12-24T22:55:16.846Z,5.13
2022-12-24T22:57:43.534Z,4.13
2022-12-24T23:00:15.952Z,5.10
2022-12-24T23:02:42.832Z,7.47
2022-12-24T23:05:14.818Z,4.80
2022-12-24T23:07:41.633Z,6.37
2022-12-24T23:10:08.786Z,5.50
2022-12-24T23:12:54.169Z,5.40
2022-12-24T23:15:20.865Z,4.83
2022-12-24T23:17:49.592Z,6.23
2022-12-24T23:20:16.326Z,6.27
2022-12-24T23:22:42.951Z,5.00
2022-12-24T23:25:09.933Z,5.83
2022-12-24T23:27:36.534Z,6.00
2022-12-24T23:30:03.551Z,5.97
2022-12-24T23:32:30.177Z,5.50
2022-12-24T23:34:56.743Z,5.63
2022-12-24T23:37:24.383Z,6.23
2022-12-24T23:39:53.579Z,6.17
2022-12-24T23:42:20.169Z,6.90
2022-12-24T23:44:46.788Z,6.17
2022-12-24T23:47:13.404Z,6.77
2022-12-24T23:49:39.987Z,7.23
2022-12-24T23:52:07.631Z,6.37
2022-12-24T23:54:34.249Z,6.63
2022-12-24T23:57:00.936Z,6.90
2022-12-24T23:59:27.590Z,7.40
